Time;durP1;ratioP1;P1;durP2;ratioP2;P2;SDS_P1;SDS_P2;PMS_P1;PMS_P2;Temp;Humidity;BMP_temperature;BMP_pressure;BME280_temperature;BME280_humidity;BME280_pressure;Samples;Min_cycle;Max_cycle;Signal;HPM_P1;HPM_P2
2022/12/24 00:01:40;;;;;;;3.55;2.50;;;;;;;;;;5021266;28;20388;-75
2022/12/24 00:04:06;;;;;;;2.85;1.70;;;;;;;;;;5021279;28;20017;-76
2022/12/24 00:06:32;;;;;;;2.55;1.80;;;;;;;;;;5018012;28;20034;-75
2022/12/24 00:08:58;;;;;;;2.95;2.10;;;;;;;;;;5021565;28;20047;-76
2022/12/24 00:11:24;;;;;;;2.25;1.77;;;;;;;;;;5024462;28;20028;-76
2022/12/24 00:13:50;;;;;;;3.65;2.28;;;;;;;;;;5014112;28;20535;-76
2022/12/24 00:16:16;;;;;;;2.53;1.58;;;;;;;;;;5026163;28;20032;-76
2022/12/24 00:18:42;;;;;;;2.65;1.83;;;;;;;;;;5021367;28;20025;-76
2022/12/24 00:21:08;;;;;;;2.47;1.60;;;;;;;;;;5020085;28;20028;-76
2022/12/24 00:23:34;;;;;;;2.30;1.70;;;;;;;;;;5023552;28;20026;-76
2022/12/24 00:26:00;;;;;;;2.92;1.63;;;;;;;;;;5021308;28;20040;-76
2022/12/24 00:28:28;;;;;;;3.55;1.60;;;;;;;;;;5024182;28;20021;-76
2022/12/24 00:30:54;;;;;;;3.80;1.95;;;;;;;;;;5021314;28;20021;-76
2022/12/24 00:33:25;;;;;;;2.63;1.58;;;;;;;;;;5023417;28;20034;-76
2022/12/24 00:35:52;;;;;;;3.33;1.60;;;;;;;;;;5017099;28;20435;-76
2022/12/24 00:38:38;;;;;;;2.50;1.55;;;;;;;;;;5024027;28;20048;-77
2022/12/24 00:41:23;;;;;;;2.40;1.60;;;;;;;;;;5018265;28;20037;-77
2022/12/24 00:43:49;;;;;;;1.95;1.30;;;;;;;;;;5013151;28;20463;-76
2022/12/24 00:46:15;;;;;;;2.90;1.67;;;;;;;;;;5020356;28;20029;-76
2022/12/24 00:48:41;;;;;;;2.40;1.50;;;;;;;;;;5022669;28;20034;-76
2022/12/24 00:51:07;;;;;;;2.47;1.40;;;;;;;;;;5019353;28;20033;-76
2022/12/24 00:53:36;;;;;;;2.22;1.52;;;;;;;;;;5019508;28;20045;-76
2022/12/24 00:56:02;;;;;;;2.22;1.50;;;;;;;;;;5017338;28;20037;-76
2022/12/24 00:58:28;;;;;;;2.25;1.50;;;;;;;;;;5024562;28;20087;-75
2022/12/24 01:00:54;;;;;;;3.33;1.45;;;;;;;;;;5024434;28;20021;-75
2022/12/24 01:03:20;;;;;;;1.75;1.50;;;;;;;;;;5029961;28;20088;-75
2022/12/24 01:05:47;;;;;;;1.63;1.17;;;;;;;;;;5029576;28;20048;-75
2022/12/24 01:08:13;;;;;;;2.78;1.80;;;;;;;;;;5029608;28;20025;-75
2022/12/24 01:10:39;;;;;;;3.40;1.75;;;;;;;;;;5026613;28;20059;-75
2022/12/24 01:13:08;;;;;;;2.40;1.45;;;;;;;;;;5023208;28;20034;-75
2022/12/24 01:15:36;;;;;;;3.75;1.70;;;;;;;;;;5024301;28;20372;-76
2022/12/24 01:18:02;;;;;;;2.13;1.30;;;;;;;;;;5026336;28;20029;-78
2022/12/24 01:20:30;;;;;;;1.75;1.30;;;;;;;;;;5030008;28;20049;-75
2022/12/24 01:22:56;;;;;;;2.83;1.70;;;;;;;;;;5025618;28;20093;-75
2022/12/24 01:25:22;;;;;;;2.55;1.52;;;;;;;;;;5023628;28;20040;-75
2022/12/24 01:27:48;;;;;;;1.45;1.35;;;;;;;;;;5026957;28;20033;-76
2022/12/24 01:30:14;;;;;;;1.48;1.30;;;;;;;;;;5026186;28;20033;-75
2022/12/24 01:32:40;;;;;;;2.95;1.67;;;;;;;;;;5024842;28;20045;-76
2022/12/24 01:35:08;;;;;;;1.52;1.20;;;;;;;;;;5023656;28;20049;-75
2022/12/24 01:37:34;;;;;;;2.05;1.30;;;;;;;;;;5019269;28;20022;-75
2022/12/24 01:45:40;;;;;;;2.00;1.30;;;;;;;;;;5022885;28;20033;-75
2022/12/24 01:48:12;;;;;;;3.13;1.50;;;;;;;;;;5024252;28;20034;-75
2022/12/24 01:50:38;;;;;;;1.80;1.45;;;;;;;;;;5031380;28;20063;-76
2022/12/24 01:53:05;;;;;;;1.95;1.40;;;;;;;;;;5024359;28;20029;-75
2022/12/24 01:55:31;;;;;;;1.88;1.40;;;;;;;;;;5022370;28;20095;-75
2022/12/24 01:57:59;;;;;;;2.42;1.35;;;;;;;;;;5019991;28;20029;-75
2022/12/24 02:00:25;;;;;;;2.17;1.70;;;;;;;;;;5022430;28;20029;-75
2022/12/24 02:02:52;;;;;;;2.15;1.45;;;;;;;;;;5028723;28;20554;-75
2022/12/24 02:05:31;;;;;;;1.33;1.10;;;;;;;;;;5029681;28;20017;-75
2022/12/24 02:07:59;;;;;;;1.42;1.10;;;;;;;;;;5027750;28;20512;-75
2022/12/24 02:10:27;;;;;;;1.38;1.08;;;;;;;;;;5023391;28;20108;-75
2022/12/24 02:12:53;;;;;;;2.20;1.33;;;;;;;;;;5025094;28;20025;-75
2022/12/24 02:15:20;;;;;;;1.63;1.40;;;;;;;;;;5023727;28;20053;-76
2022/12/24 02:18:02;;;;;;;1.55;1.35;;;;;;;;;;5022900;28;20147;-74
2022/12/24 02:20:34;;;;;;;1.95;1.40;;;;;;;;;;5021901;28;20039;-76
2022/12/24 02:23:19;;;;;;;1.40;1.20;;;;;;;;;;5019418;28;20118;-74
2022/12/24 02:25:57;;;;;;;1.27;1.17;;;;;;;;;;5023626;28;20082;-74
2022/12/24 02:28:29;;;;;;;1.20;1.10;;;;;;;;;;5024326;28;20039;-74
2022/12/24 02:30:58;;;;;;;1.65;1.10;;;;;;;;;;5023870;28;20036;-74
2022/12/24 02:33:24;;;;;;;1.63;1.30;;;;;;;;;;5024432;28;20045;-74
2022/12/24 02:35:59;;;;;;;1.63;1.10;;;;;;;;;;5024060;28;20025;-74
2022/12/24 02:38:31;;;;;;;1.27;1.10;;;;;;;;;;5024501;28;20116;-74
2022/12/24 02:41:07;;;;;;;1.67;1.25;;;;;;;;;;5024292;28;20025;-74
2022/12/24 02:43:34;;;;;;;2.25;1.10;;;;;;;;;;5013598;28;20032;-75
2022/12/24 02:46:03;;;;;;;2.22;1.30;;;;;;;;;;5019132;28;20029;-74
2022/12/24 02:48:29;;;;;;;4.25;1.30;;;;;;;;;;5025594;28;20132;-75
2022/12/24 02:51:03;;;;;;;2.60;1.30;;;;;;;;;;5019113;28;20026;-74
2022/12/24 02:53:29;;;;;;;1.95;1.30;;;;;;;;;;5027435;28;20029;-74
2022/12/24 02:55:55;;;;;;;2.03;1.38;;;;;;;;;;5024554;28;20080;-74
2022/12/24 02:58:21;;;;;;;1.45;1.35;;;;;;;;;;5024165;28;20428;-74
2022/12/24 03:00:47;;;;;;;1.30;1.02;;;;;;;;;;5025112;28;20022;-75
2022/12/24 03:03:39;;;;;;;1.80;1.27;;;;;;;;;;5023995;28;20368;-74
2022/12/24 03:06:16;;;;;;;1.70;1.13;;;;;;;;;;5022039;28;20041;-74
2022/12/24 03:09:01;;;;;;;2.45;1.15;;;;;;;;;;5026070;28;20017;-74
2022/12/24 03:11:27;;;;;;;2.28;1.20;;;;;;;;;;5027149;28;20033;-74
2022/12/24 03:13:54;;;;;;;2.50;1.20;;;;;;;;;;5019124;28;20025;-74
2022/12/24 03:16:24;;;;;;;1.52;1.17;;;;;;;;;;5020365;28;20106;-74
2022/12/24 03:18:50;;;;;;;1.65;1.23;;;;;;;;;;5018769;28;20779;-75
2022/12/24 03:21:20;;;;;;;1.98;1.20;;;;;;;;;;5022900;28;20025;-74
2022/12/24 03:23:47;;;;;;;1.75;1.13;;;;;;;;;;5016814;28;20017;-74
2022/12/24 03:26:14;;;;;;;1.55;1.15;;;;;;;;;;5020898;28;20033;-74
2022/12/24 03:28:40;;;;;;;1.27;1.15;;;;;;;;;;5019014;28;20053;-74
2022/12/24 03:31:07;;;;;;;2.40;1.35;;;;;;;;;;5022152;28;20068;-74
2022/12/24 03:33:41;;;;;;;1.08;0.98;;;;;;;;;;5023675;28;20495;-75
2022/12/24 03:36:08;;;;;;;2.50;1.30;;;;;;;;;;5021404;28;20116;-76
2022/12/24 03:38:34;;;;;;;1.48;1.05;;;;;;;;;;5027232;28;20699;-75
2022/12/24 03:41:01;;;;;;;2.55;1.33;;;;;;;;;;5024471;28;20017;-75
2022/12/24 03:43:27;;;;;;;1.38;1.20;;;;;;;;;;5025305;28;20037;-75
2022/12/24 03:45:53;;;;;;;1.35;1.02;;;;;;;;;;5019704;28;20389;-75
2022/12/24 03:48:19;;;;;;;1.17;1.08;;;;;;;;;;5022167;28;20041;-75
2022/12/24 03:50:45;;;;;;;2.00;1.42;;;;;;;;;;5022910;28;20052;-75
2022/12/24 03:53:11;;;;;;;1.73;1.15;;;;;;;;;;5022067;28;20029;-75
2022/12/24 03:55:38;;;;;;;1.38;1.08;;;;;;;;;;5019345;28;20044;-74
2022/12/24 03:58:04;;;;;;;1.75;1.13;;;;;;;;;;5020070;28;20025;-74
2022/12/24 04:00:32;;;;;;;2.15;1.20;;;;;;;;;;5020697;28;20642;-74
2022/12/24 04:02:58;;;;;;;2.88;1.60;;;;;;;;;;5018815;28;20025;-75
2022/12/24 04:05:24;;;;;;;1.27;1.02;;;;;;;;;;5016560;28;20503;-74
2022/12/24 04:07:50;;;;;;;1.65;1.08;;;;;;;;;;5021587;28;20594;-74
2022/12/24 04:10:16;;;;;;;2.10;1.15;;;;;;;;;;5018780;28;20412;-74
2022/12/24 04:12:42;;;;;;;1.65;1.30;;;;;;;;;;5027543;28;20033;-74
2022/12/24 04:15:08;;;;;;;1.40;1.10;;;;;;;;;;5025050;28;20021;-74
2022/12/24 04:17:34;;;;;;;1.92;1.00;;;;;;;;;;5018521;28;20025;-74
2022/12/24 04:20:00;;;;;;;1.67;1.58;;;;;;;;;;5025189;28;20393;-74
2022/12/24 04:22:26;;;;;;;0.80;0.80;;;;;;;;;;5022853;28;20021;-74
2022/12/24 04:24:52;;;;;;;1.75;1.15;;;;;;;;;;5020168;28;20464;-74
2022/12/24 04:27:18;;;;;;;1.50;1.00;;;;;;;;;;5023529;28;20384;-74
2022/12/24 04:29:44;;;;;;;1.30;1.10;;;;;;;;;;5023009;28;20037;-74
2022/12/24 04:32:10;;;;;;;1.80;1.35;;;;;;;;;;5017664;28;20089;-74
2022/12/24 04:34:37;;;;;;;1.23;1.00;;;;;;;;;;5025105;28;20033;-75
2022/12/24 04:37:03;;;;;;;1.10;1.00;;;;;;;;;;5023872;28;20034;-74
2022/12/24 04:39:29;;;;;;;2.00;1.40;;;;;;;;;;5015702;28;20119;-75
2022/12/24 04:41:55;;;;;;;1.80;1.38;;;;;;;;;;5020512;28;20061;-74
2022/12/24 04:44:21;;;;;;;1.35;0.80;;;;;;;;;;5014423;28;20026;-75
2022/12/24 04:46:47;;;;;;;2.08;1.25;;;;;;;;;;5020891;28;20396;-75
2022/12/24 04:49:13;;;;;;;1.60;1.10;;;;;;;;;;5023977;28;20032;-74
2022/12/24 04:51:39;;;;;;;2.10;1.30;;;;;;;;;;5021828;28;20040;-75
2022/12/24 04:54:05;;;;;;;1.42;1.10;;;;;;;;;;5021398;28;20034;-74
2022/12/24 04:56:32;;;;;;;1.50;1.20;;;;;;;;;;5022281;28;20115;-75
2022/12/24 04:58:59;;;;;;;1.60;1.17;;;;;;;;;;5021110;28;20087;-74
2022/12/24 05:01:26;;;;;;;1.55;1.30;;;;;;;;;;5026788;28;20032;-75
2022/12/24 05:03:53;;;;;;;2.10;1.20;;;;;;;;;;5024630;28;20037;-74
2022/12/24 05:06:21;;;;;;;1.25;0.93;;;;;;;;;;5017371;28;20039;-75
2022/12/24 05:08:47;;;;;;;1.35;1.00;;;;;;;;;;5027174;28;20033;-74
2022/12/24 05:11:14;;;;;;;1.17;1.08;;;;;;;;;;5021906;28;20523;-75
2022/12/24 05:13:41;;;;;;;1.83;1.20;;;;;;;;;;5016295;28;20044;-75
2022/12/24 05:16:07;;;;;;;1.65;1.15;;;;;;;;;;5020548;28;20060;-75
2022/12/24 05:18:33;;;;;;;1.80;1.30;;;;;;;;;;5022145;28;20029;-75
2022/12/24 05:20:59;;;;;;;2.05;1.13;;;;;;;;;;5019163;28;20496;-74
2022/12/24 05:26:23;;;;;;;1.50;1.13;;;;;;;;;;5017418;28;20033;-75
2022/12/24 05:28:50;;;;;;;2.60;0.98;;;;;;;;;;5021141;28;20396;-75
2022/12/24 05:31:16;;;;;;;0.85;0.85;;;;;;;;;;5021829;28;20033;-75
2022/12/24 05:33:42;;;;;;;1.52;1.10;;;;;;;;;;5023593;28;20112;-74
2022/12/24 05:36:09;;;;;;;1.63;1.25;;;;;;;;;;5020893;28;20104;-75
2022/12/24 05:38:35;;;;;;;1.88;1.10;;;;;;;;;;5021445;28;20487;-75
2022/12/24 05:41:01;;;;;;;1.48;1.20;;;;;;;;;;5021995;28;20126;-74
2022/12/24 05:43:27;;;;;;;1.30;1.00;;;;;;;;;;5018060;28;20676;-75
2022/12/24 05:45:57;;;;;;;1.20;0.93;;;;;;;;;;5023655;28;20029;-74
2022/12/24 05:48:23;;;;;;;0.98;0.90;;;;;;;;;;5028067;28;20037;-74
2022/12/24 05:50:49;;;;;;;1.52;1.10;;;;;;;;;;5026176;28;20028;-74
2022/12/24 05:53:15;;;;;;;4.65;1.42;;;;;;;;;;5023769;28;20049;-74
2022/12/24 05:55:41;;;;;;;1.20;1.10;;;;;;;;;;5026993;28;20083;-74
2022/12/24 05:58:07;;;;;;;1.23;0.90;;;;;;;;;;5023048;28;20087;-74
2022/12/24 06:00:33;;;;;;;1.52;1.00;;;;;;;;;;5024559;28;20049;-75
2022/12/24 06:02:59;;;;;;;1.70;1.08;;;;;;;;;;5024093;28;20392;-76
2022/12/24 06:05:25;;;;;;;1.67;1.05;;;;;;;;;;5024588;28;20362;-75
2022/12/24 06:07:51;;;;;;;1.58;1.20;;;;;;;;;;5023451;28;20399;-74
2022/12/24 06:10:17;;;;;;;1.70;1.10;;;;;;;;;;5023028;28;20109;-75
2022/12/24 06:12:43;;;;;;;1.63;1.10;;;;;;;;;;5031673;28;20021;-75
2022/12/24 06:15:09;;;;;;;1.27;0.90;;;;;;;;;;5023221;28;20022;-75
2022/12/24 06:17:35;;;;;;;0.88;0.85;;;;;;;;;;5025645;28;20099;-75
2022/12/24 06:20:01;;;;;;;3.42;1.15;;;;;;;;;;5026283;28;20412;-75
2022/12/24 06:22:27;;;;;;;1.20;1.00;;;;;;;;;;5027116;28;20431;-75
2022/12/24 06:24:53;;;;;;;1.52;1.00;;;;;;;;;;5028118;28;20032;-75
2022/12/24 06:27:19;;;;;;;2.20;0.82;;;;;;;;;;5024659;28;20476;-75
2022/12/24 06:29:45;;;;;;;1.85;1.20;;;;;;;;;;5024295;28;20528;-75
2022/12/24 06:32:11;;;;;;;2.00;1.30;;;;;;;;;;5022461;28;20124;-75
2022/12/24 06:34:37;;;;;;;1.33;1.00;;;;;;;;;;5021842;28;20060;-75
2022/12/24 06:37:02;;;;;;;2.20;1.40;;;;;;;;;;5023304;28;20038;-75
2022/12/24 06:39:28;;;;;;;2.83;1.25;;;;;;;;;;5024320;28;20091;-75
2022/12/24 06:41:54;;;;;;;1.52;1.17;;;;;;;;;;5026238;28;20033;-74
2022/12/24 06:44:20;;;;;;;1.50;1.08;;;;;;;;;;5027764;28;20036;-75
2022/12/24 06:46:46;;;;;;;2.22;1.30;;;;;;;;;;5024753;28;20161;-74
2022/12/24 06:49:12;;;;;;;1.45;1.08;;;;;;;;;;5018613;28;20029;-75
2022/12/24 06:51:38;;;;;;;1.88;1.20;;;;;;;;;;5022398;28;20026;-75
2022/12/24 06:54:04;;;;;;;3.72;1.20;;;;;;;;;;5026877;28;20028;-74
2022/12/24 06:56:30;;;;;;;1.45;1.23;;;;;;;;;;5021246;28;20439;-74
2022/12/24 06:58:56;;;;;;;0.82;0.82;;;;;;;;;;5025013;28;20021;-74
2022/12/24 07:01:23;;;;;;;1.27;1.17;;;;;;;;;;5020099;28;20084;-75
2022/12/24 07:03:49;;;;;;;1.65;1.23;;;;;;;;;;5024268;28;20092;-75
2022/12/24 07:06:17;;;;;;;1.75;1.20;;;;;;;;;;5022724;28;20068;-75
2022/12/24 07:08:43;;;;;;;2.45;1.40;;;;;;;;;;5026485;28;20017;-74
2022/12/24 07:11:09;;;;;;;1.83;1.20;;;;;;;;;;5021509;28;20570;-75
2022/12/24 07:13:34;;;;;;;1.20;1.10;;;;;;;;;;5022585;28;20571;-75
2022/12/24 07:16:01;;;;;;;1.85;1.05;;;;;;;;;;5022631;28;20456;-75
2022/12/24 07:18:27;;;;;;;2.38;1.10;;;;;;;;;;5020110;28;20029;-75
2022/12/24 07:20:53;;;;;;;1.50;1.10;;;;;;;;;;5022229;28;20026;-75
2022/12/24 07:23:19;;;;;;;1.67;1.02;;;;;;;;;;5015151;28;20590;-75
2022/12/24 07:25:45;;;;;;;1.17;1.08;;;;;;;;;;5026411;28;20661;-74
2022/12/24 07:28:11;;;;;;;1.70;1.10;;;;;;;;;;5022812;28;20025;-75
2022/12/24 07:30:37;;;;;;;1.70;1.23;;;;;;;;;;5021037;28;20044;-75
2022/12/24 07:33:03;;;;;;;1.48;1.20;;;;;;;;;;5021155;28;20498;-75
2022/12/24 07:35:29;;;;;;;1.00;0.90;;;;;;;;;;5020237;28;20037;-75
2022/12/24 07:37:55;;;;;;;2.45;1.40;;;;;;;;;;5021276;28;20507;-75
2022/12/24 07:40:21;;;;;;;2.47;1.20;;;;;;;;;;5028455;28;20423;-74
2022/12/24 07:42:47;;;;;;;1.50;1.20;;;;;;;;;;5021685;28;20129;-74
2022/12/24 07:45:13;;;;;;;2.55;1.17;;;;;;;;;;5023468;28;20421;-75
2022/12/24 07:47:39;;;;;;;1.73;0.98;;;;;;;;;;5024842;28;20120;-74
2022/12/24 07:50:06;;;;;;;1.75;1.30;;;;;;;;;;5019989;28;20029;-75
2022/12/24 07:52:31;;;;;;;1.98;1.15;;;;;;;;;;5022850;28;20040;-75
2022/12/24 07:54:57;;;;;;;1.40;1.10;;;;;;;;;;5024263;28;20500;-74
2022/12/24 07:57:23;;;;;;;1.13;1.02;;;;;;;;;;5023584;28;20040;-75
2022/12/24 07:59:49;;;;;;;1.35;1.15;;;;;;;;;;5022416;28;20036;-75
2022/12/24 08:02:15;;;;;;;1.17;1.08;;;;;;;;;;5017923;28;20028;-75
2022/12/24 08:04:41;;;;;;;0.95;0.90;;;;;;;;;;5021676;28;20082;-75
2022/12/24 08:07:07;;;;;;;3.40;1.20;;;;;;;;;;5020524;28;20028;-74
2022/12/24 08:09:37;;;;;;;2.45;1.30;;;;;;;;;;5021006;28;20025;-74
2022/12/24 08:12:04;;;;;;;3.15;1.48;;;;;;;;;;5021371;28;20022;-75
2022/12/24 08:14:30;;;;;;;1.92;1.35;;;;;;;;;;5022846;28;20045;-76
2022/12/24 08:16:56;;;;;;;1.20;1.10;;;;;;;;;;5023441;28;20030;-79
2022/12/24 08:19:25;;;;;;;1.10;1.00;;;;;;;;;;5017800;28;20033;-79
2022/12/24 08:21:51;;;;;;;1.58;1.02;;;;;;;;;;5023094;28;20633;-79
2022/12/24 08:24:17;;;;;;;2.05;1.17;;;;;;;;;;5024660;28;20029;-79
2022/12/24 08:26:43;;;;;;;1.77;1.30;;;;;;;;;;5023151;28;20533;-78
2022/12/24 08:29:09;;;;;;;1.70;1.10;;;;;;;;;;5022054;28;20025;-79
2022/12/24 08:31:35;;;;;;;2.00;1.23;;;;;;;;;;5019925;28;20534;-74
2022/12/24 08:34:05;;;;;;;1.60;1.17;;;;;;;;;;5024194;28;20112;-74
2022/12/24 08:36:31;;;;;;;2.75;1.30;;;;;;;;;;5017886;28;20464;-74
2022/12/24 08:38:57;;;;;;;3.08;1.77;;;;;;;;;;5021214;28;20037;-74
2022/12/24 08:41:23;;;;;;;2.95;1.30;;;;;;;;;;5021876;28;20495;-75
2022/12/24 08:43:51;;;;;;;1.83;1.00;;;;;;;;;;5024884;28;20030;-74
2022/12/24 08:46:20;;;;;;;1.80;1.13;;;;;;;;;;5022433;28;20079;-74
2022/12/24 08:48:46;;;;;;;3.03;1.27;;;;;;;;;;5022275;28;20033;-74
2022/12/24 08:51:12;;;;;;;2.55;1.25;;;;;;;;;;5019206;28;20051;-75
2022/12/24 08:53:39;;;;;;;1.58;1.20;;;;;;;;;;5019469;28;20443;-75
2022/12/24 08:56:06;;;;;;;2.13;1.23;;;;;;;;;;5022131;28;20033;-74
2022/12/24 08:58:32;;;;;;;1.17;1.08;;;;;;;;;;5017112;28;20105;-75
2022/12/24 09:02:04;;;;;;;6.43;2.60;;;;;;;;;;5015905;28;20436;-73
2022/12/24 09:04:05;;;;;;;2.00;1.42;;;;;;;;;;5017625;28;20120;-80
2022/12/24 09:06:31;;;;;;;1.52;1.20;;;;;;;;;;5021640;28;20067;-76
2022/12/24 09:08:57;;;;;;;2.33;1.48;;;;;;;;;;5016202;28;20094;-75
2022/12/24 09:11:24;;;;;;;2.10;1.30;;;;;;;;;;5019601;28;20041;-76
2022/12/24 09:13:50;;;;;;;2.40;1.58;;;;;;;;;;5021417;28;20124;-75
2022/12/24 09:16:16;;;;;;;3.30;1.92;;;;;;;;;;5024196;28;20136;-76
2022/12/24 09:18:42;;;;;;;2.72;1.70;;;;;;;;;;5020537;28;20037;-76
2022/12/24 09:21:13;;;;;;;5.00;2.40;;;;;;;;;;5026101;28;20033;-76
2022/12/24 09:23:39;;;;;;;3.25;1.73;;;;;;;;;;5028833;28;20033;-76
2022/12/24 09:26:09;;;;;;;3.35;1.73;;;;;;;;;;5029177;28;20025;-76
2022/12/24 09:28:35;;;;;;;4.63;1.67;;;;;;;;;;5025682;28;20045;-76
2022/12/24 09:31:02;;;;;;;3.28;1.80;;;;;;;;;;5024904;28;20041;-76
2022/12/24 09:33:29;;;;;;;3.45;2.00;;;;;;;;;;5025395;28;20037;-75
2022/12/24 09:35:55;;;;;;;3.45;2.28;;;;;;;;;;5025860;28;20033;-75
2022/12/24 09:38:22;;;;;;;5.85;2.30;;;;;;;;;;5025483;28;20120;-76
2022/12/24 09:40:48;;;;;;;3.50;2.20;;;;;;;;;;5028619;28;20029;-76
2022/12/24 09:43:19;;;;;;;3.88;2.08;;;;;;;;;;5018196;28;20084;-75
2022/12/24 09:45:49;;;;;;;3.08;1.92;;;;;;;;;;5021750;28;20021;-83
2022/12/24 09:48:18;;;;;;;4.35;2.28;;;;;;;;;;5023988;28;20075;-76
2022/12/24 09:51:02;;;;;;;5.25;2.22;;;;;;;;;;5024395;28;20029;-76
2022/12/24 09:53:34;;;;;;;3.40;2.25;;;;;;;;;;5016591;28;20045;-76
2022/12/24 09:56:01;;;;;;;4.05;2.38;;;;;;;;;;5018465;28;20443;-77
2022/12/24 09:58:35;;;;;;;3.70;2.35;;;;;;;;;;5017945;28;20025;-77
2022/12/24 10:01:01;;;;;;;4.88;2.25;;;;;;;;;;5021976;28;20063;-76
2022/12/24 10:03:27;;;;;;;4.63;2.15;;;;;;;;;;5019885;28;20025;-75
2022/12/24 10:06:01;;;;;;;6.15;2.05;;;;;;;;;;5019165;28;20605;-74
2022/12/24 10:08:30;;;;;;;5.93;2.30;;;;;;;;;;5022091;28;20061;-75
2022/12/24 10:11:07;;;;;;;4.35;2.63;;;;;;;;;;5020708;28;20047;-74
2022/12/24 10:13:36;;;;;;;3.75;2.50;;;;;;;;;;5017825;28;20033;-75
2022/12/24 10:16:04;;;;;;;5.47;2.53;;;;;;;;;;5017147;28;20090;-77
2022/12/24 10:18:33;;;;;;;3.10;2.10;;;;;;;;;;5015712;28;20029;-76
2022/12/24 10:21:10;;;;;;;3.63;2.38;;;;;;;;;;5017223;28;20068;-75
2022/12/24 10:23:39;;;;;;;3.83;2.15;;;;;;;;;;5020520;28;20076;-75
2022/12/24 10:26:31;;;;;;;4.93;2.38;;;;;;;;;;5017584;28;20033;-75
2022/12/24 10:29:03;;;;;;;4.50;2.45;;;;;;;;;;5014595;28;20045;-76
2022/12/24 10:31:31;;;;;;;4.50;2.65;;;;;;;;;;5020998;28;20626;-75
2022/12/24 10:34:15;;;;;;;3.47;2.28;;;;;;;;;;5022751;28;20037;-75
2022/12/24 10:36:41;;;;;;;5.30;2.85;;;;;;;;;;5020626;28;20025;-75
2022/12/24 10:39:21;;;;;;;5.95;2.45;;;;;;;;;;5017940;28;20086;-75
2022/12/24 10:41:52;;;;;;;6.03;2.67;;;;;;;;;;5018060;28;20029;-74
2022/12/24 10:44:20;;;;;;;4.93;2.97;;;;;;;;;;5020503;28;20425;-74
2022/12/24 10:46:46;;;;;;;4.90;2.83;;;;;;;;;;5019719;28;20044;-79
2022/12/24 10:49:15;;;;;;;5.22;2.60;;;;;;;;;;5015500;28;20100;-79
2022/12/24 10:52:00;;;;;;;4.30;2.50;;;;;;;;;;5019801;28;20084;-77
2022/12/24 10:54:27;;;;;;;3.42;2.30;;;;;;;;;;5017803;28;20029;-86
2022/12/24 10:56:57;;;;;;;3.78;2.40;;;;;;;;;;5021517;28;20060;-86
2022/12/24 10:59:33;;;;;;;6.32;3.70;;;;;;;;;;5020964;28;20397;-78
2022/12/24 11:02:00;;;;;;;7.43;3.60;;;;;;;;;;5021229;28;20049;-77
2022/12/24 11:04:30;;;;;;;7.00;3.42;;;;;;;;;;5025089;28;20083;-78
2022/12/24 11:07:01;;;;;;;8.25;4.20;;;;;;;;;;5023443;28;20107;-79
2022/12/24 11:09:27;;;;;;;8.05;3.47;;;;;;;;;;5024493;28;20602;-76
2022/12/24 11:11:54;;;;;;;9.63;4.40;;;;;;;;;;5022757;28;20464;-74
2022/12/24 11:14:21;;;;;;;9.35;4.40;;;;;;;;;;5020312;28;20064;-75
2022/12/24 11:16:54;;;;;;;14.27;4.45;;;;;;;;;;5021823;28;20574;-75
2022/12/24 11:19:26;;;;;;;10.73;4.20;;;;;;;;;;5023426;28;20087;-76
2022/12/24 11:21:58;;;;;;;9.30;3.90;;;;;;;;;;5015545;28;20030;-76
2022/12/24 11:24:26;;;;;;;7.55;4.07;;;;;;;;;;5018641;28;20037;-76
2022/12/24 11:26:52;;;;;;;6.60;3.40;;;;;;;;;;5021962;28;20026;-76
2022/12/24 11:29:23;;;;;;;6.95;3.70;;;;;;;;;;5021599;28;20120;-77
2022/12/24 11:31:51;;;;;;;10.55;4.07;;;;;;;;;;5022292;28;20052;-76
2022/12/24 11:34:17;;;;;;;7.45;3.28;;;;;;;;;;5012067;28;20045;-79
2022/12/24 11:36:43;;;;;;;10.60;4.18;;;;;;;;;;5020039;28;20028;-76
2022/12/24 11:39:17;;;;;;;8.23;3.25;;;;;;;;;;5014851;28;20032;-77
2022/12/24 11:41:44;;;;;;;10.88;3.83;;;;;;;;;;5017054;28;20069;-78
2022/12/24 11:44:11;;;;;;;5.30;3.25;;;;;;;;;;5018805;28;20026;-75
2022/12/24 11:46:38;;;;;;;7.05;3.40;;;;;;;;;;5012474;28;20064;-77
2022/12/24 11:49:17;;;;;;;10.57;3.70;;;;;;;;;;5017371;28;20024;-79
2022/12/24 11:52:02;;;;;;;9.90;4.75;;;;;;;;;;5012262;28;20537;-78
2022/12/24 11:54:31;;;;;;;12.60;3.58;;;;;;;;;;5015109;28;20155;-74
2022/12/24 11:56:58;;;;;;;10.15;3.42;;;;;;;;;;5016049;28;20487;-76
2022/12/24 11:59:51;;;;;;;14.07;4.00;;;;;;;;;;5014640;28;20454;-77
2022/12/24 12:02:40;;;;;;;8.07;3.70;;;;;;;;;;5023893;28;20067;-94
2022/12/24 12:05:12;;;;;;;10.10;3.00;;;;;;;;;;5014776;28;20088;-79
2022/12/24 12:07:38;;;;;;;12.27;3.75;;;;;;;;;;5016591;28;20053;-79
2022/12/24 12:10:07;;;;;;;15.40;3.63;;;;;;;;;;5015810;28;20037;-79
2022/12/24 12:12:40;;;;;;;14.35;3.97;;;;;;;;;;5019936;28;20038;-91
2022/12/24 12:15:12;;;;;;;9.45;3.13;;;;;;;;;;5018817;28;20033;-82
2022/12/24 12:18:00;;;;;;;8.98;3.67;;;;;;;;;;5018237;28;20064;-85
2022/12/24 12:20:27;;;;;;;7.57;3.53;;;;;;;;;;5015889;28;20584;-79
2022/12/24 12:23:02;;;;;;;6.22;3.03;;;;;;;;;;5020276;28;20040;-86
2022/12/24 12:25:43;;;;;;;13.48;3.10;;;;;;;;;;5015064;28;20026;-74
2022/12/24 12:28:15;;;;;;;13.02;2.92;;;;;;;;;;5013782;28;20488;-74
2022/12/24 12:30:43;;;;;;;9.60;2.88;;;;;;;;;;5016784;28;20392;-74
2022/12/24 12:33:11;;;;;;;8.60;2.72;;;;;;;;;;5018106;28;20041;-73
2022/12/24 12:35:39;;;;;;;13.07;3.13;;;;;;;;;;5017487;28;20439;-73
2022/12/24 12:38:09;;;;;;;9.85;3.38;;;;;;;;;;5021614;28;20014;-74
2022/12/24 12:40:34;;;;;;;11.93;2.92;;;;;;;;;;5016847;28;20030;-72
2022/12/24 12:43:19;;;;;;;8.43;3.17;;;;;;;;;;5017793;28;20021;-72
2022/12/24 12:46:05;;;;;;;8.27;2.53;;;;;;;;;;5019288;28;20093;-73
2022/12/24 12:48:43;;;;;;;5.57;2.80;;;;;;;;;;5015863;28;20562;-73
2022/12/24 12:51:21;;;;;;;5.20;2.60;;;;;;;;;;5014988;28;20033;-73
2022/12/24 12:54:11;;;;;;;9.18;3.10;;;;;;;;;;5007024;28;20182;-74
2022/12/24 12:56:38;;;;;;;7.50;2.30;;;;;;;;;;5026439;28;20028;-73
2022/12/24 12:59:14;;;;;;;3.97;2.70;;;;;;;;;;5029339;28;20033;-73
2022/12/24 13:01:50;;;;;;;6.70;2.45;;;;;;;;;;5025721;28;20040;-73
2022/12/24 13:04:25;;;;;;;4.97;2.45;;;;;;;;;;5025829;28;20048;-73
2022/12/24 13:07:04;;;;;;;5.32;2.50;;;;;;;;;;5023381;28;20041;-73
2022/12/24 13:09:42;;;;;;;6.40;2.33;;;;;;;;;;5019230;28;20048;-72
2022/12/24 13:12:11;;;;;;;6.05;2.55;;;;;;;;;;5028064;28;20437;-73
2022/12/24 13:14:52;;;;;;;5.40;3.00;;;;;;;;;;5015545;28;20104;-73
2022/12/24 13:17:30;;;;;;;4.93;3.25;;;;;;;;;;5020831;28;20029;-73
2022/12/24 13:20:04;;;;;;;3.70;1.95;;;;;;;;;;5031088;28;20487;-73
2022/12/24 13:22:30;;;;;;;4.68;2.58;;;;;;;;;;5033363;28;20048;-72
2022/12/24 13:24:59;;;;;;;9.18;2.60;;;;;;;;;;5034202;28;20632;-73
2022/12/24 13:27:32;;;;;;;5.10;2.40;;;;;;;;;;5032573;28;20025;-73
2022/12/24 13:29:59;;;;;;;5.85;2.35;;;;;;;;;;5034195;28;20053;-73
2022/12/24 13:32:26;;;;;;;5.05;2.30;;;;;;;;;;5022601;28;20072;-73
2022/12/24 13:34:58;;;;;;;4.90;2.30;;;;;;;;;;5027398;28;20075;-73
2022/12/24 13:37:45;;;;;;;;;;;;;;;;;;5018151;28;20025;-73
2022/12/24 13:40:10;;;;;;;4.65;2.03;;;;;;;;;;5029240;28;19954;-73
2022/12/24 13:42:46;;;;;;;4.68;1.98;;;;;;;;;;5028403;28;20036;-73
2022/12/24 13:45:31;;;;;;;4.95;2.00;;;;;;;;;;5030078;28;20036;-73
2022/12/24 13:48:06;;;;;;;5.15;2.22;;;;;;;;;;5023603;28;20444;-74
2022/12/24 13:50:37;;;;;;;5.25;2.47;;;;;;;;;;5026631;28;20025;-72
2022/12/24 13:53:04;;;;;;;4.00;2.28;;;;;;;;;;5025513;28;20021;-73
2022/12/24 13:55:30;;;;;;;4.03;2.15;;;;;;;;;;5024213;28;20044;-73
2022/12/24 13:58:01;;;;;;;3.15;1.65;;;;;;;;;;5026219;28;20038;-73
2022/12/24 14:00:27;;;;;;;4.40;2.55;;;;;;;;;;5018908;28;20385;-72
2022/12/24 14:02:53;;;;;;;4.22;2.33;;;;;;;;;;5025235;28;20174;-73
2022/12/24 14:05:21;;;;;;;8.63;2.55;;;;;;;;;;5023586;28;20711;-73
2022/12/24 14:07:49;;;;;;;11.40;2.35;;;;;;;;;;5018135;28;20499;-72
2022/12/24 14:10:23;;;;;;;3.47;1.75;;;;;;;;;;5020246;28;20132;-72
2022/12/24 14:12:50;;;;;;;4.10;2.10;;;;;;;;;;5026062;28;20033;-73
2022/12/24 14:15:35;;;;;;;3.55;1.92;;;;;;;;;;5021712;28;20036;-74
2022/12/24 14:18:01;;;;;;;3.38;1.70;;;;;;;;;;5013388;28;20037;-74
2022/12/24 14:20:27;;;;;;;3.08;1.70;;;;;;;;;;5019056;28;20468;-76
2022/12/24 14:22:53;;;;;;;3.95;2.00;;;;;;;;;;5025249;28;20029;-73
2022/12/24 14:25:21;;;;;;;4.82;2.03;;;;;;;;;;5019265;28;20056;-72
2022/12/24 14:27:56;;;;;;;5.07;1.85;;;;;;;;;;5023152;28;20582;-72
2022/12/24 14:30:26;;;;;;;3.00;1.73;;;;;;;;;;5021962;28;20021;-74
2022/12/24 14:32:52;;;;;;;3.90;1.92;;;;;;;;;;5024902;28;20058;-75
2022/12/24 14:35:20;;;;;;;4.78;1.95;;;;;;;;;;5024231;28;20029;-73
2022/12/24 14:37:51;;;;;;;6.07;1.95;;;;;;;;;;5022729;28;20705;-74
2022/12/24 14:40:19;;;;;;;3.47;2.03;;;;;;;;;;5020902;28;20121;-78
2022/12/24 14:43:10;;;;;;;2.70;1.60;;;;;;;;;;5026144;28;20431;-79
2022/12/24 14:45:35;;;;;;;4.15;1.63;;;;;;;;;;5022983;28;20028;-78
2022/12/24 14:48:20;;;;;;;4.68;1.75;;;;;;;;;;5022379;28;20037;-85
2022/12/24 14:50:54;;;;;;;4.15;1.63;;;;;;;;;;5019677;28;20037;-81
2022/12/24 14:53:20;;;;;;;4.47;1.92;;;;;;;;;;5020486;28;20037;-76
2022/12/24 14:55:47;;;;;;;6.43;1.88;;;;;;;;;;5021594;28;20044;-76
2022/12/24 14:58:35;;;;;;;2.90;1.42;;;;;;;;;;5023988;28;20116;-75
2022/12/24 15:01:18;;;;;;;7.65;1.67;;;;;;;;;;5022052;28;20463;-80
2022/12/24 15:03:44;;;;;;;2.70;1.70;;;;;;;;;;5026414;28;20033;-76